sensor_id;sensor_type;location;lat;lon;timestamp;temperature;humidity
74153;DHT22;62505;46.070;14.492;2023-04-06T00:00:39;21.40;65.30
74153;DHT22;62505;46.070;14.492;2023-04-06T00:03:06;21.40;65.20
74153;DHT22;62505;46.070;14.492;2023-04-06T00:05:33;21.40;65.10
74153;DHT22;62505;46.070;14.492;2023-04-06T00:08:00;21.40;65.10
74153;DHT22;62505;46.070;14.492;2023-04-06T00:10:27;21.40;65.10
74153;DHT22;62505;46.070;14.492;2023-04-06T00:12:56;21.40;64.90
74153;DHT22;62505;46.070;14.492;2023-04-06T00:15:23;21.40;65.10
74153;DHT22;62505;46.070;14.492;2023-04-06T00:17:50;21.40;64.90
74153;DHT22;62505;46.070;14.492;2023-04-06T00:20:18;21.40;65.00
74153;DHT22;62505;46.070;14.492;2023-04-06T00:22:45;21.40;65.10
74153;DHT22;62505;46.070;14.492;2023-04-06T00:25:12;21.40;65.00
74153;DHT22;62505;46.070;14.492;2023-04-06T00:27:41;21.40;64.80
74153;DHT22;62505;46.070;14.492;2023-04-06T00:30:10;21.40;64.90
74153;DHT22;62505;46.070;14.492;2023-04-06T00:32:37;21.40;64.90
74153;DHT22;62505;46.070;14.492;2023-04-06T00:35:05;21.40;64.90
74153;DHT22;62505;46.070;14.492;2023-04-06T00:37:32;21.40;64.90
74153;DHT22;62505;46.070;14.492;2023-04-06T00:40:00;21.30;64.60
74153;DHT22;62505;46.070;14.492;2023-04-06T00:42:28;21.30;64.70
74153;DHT22;62505;46.070;14.492;2023-04-06T00:44:56;21.40;64.60
74153;DHT22;62505;46.070;14.492;2023-04-06T00:47:25;21.30;64.50
74153;DHT22;62505;46.070;14.492;2023-04-06T00:49:53;21.30;64.30
74153;DHT22;62505;46.070;14.492;2023-04-06T00:52:23;21.40;64.30
74153;DHT22;62505;46.070;14.492;2023-04-06T00:54:50;21.30;64.50
74153;DHT22;62505;46.070;14.492;2023-04-06T00:57:17;21.30;64.60
74153;DHT22;62505;46.070;14.492;2023-04-06T00:59:45;21.30;64.30
74153;DHT22;62505;46.070;14.492;2023-04-06T01:02:12;21.40;64.20
74153;DHT22;62505;46.070;14.492;2023-04-06T01:04:41;21.30;64.50
74153;DHT22;62505;46.070;14.492;2023-04-06T01:07:08;21.30;64.00
74153;DHT22;62505;46.070;14.492;2023-04-06T01:09:36;21.30;64.10
74153;DHT22;62505;46.070;14.492;2023-04-06T01:12:03;21.30;64.20
74153;DHT22;62505;46.070;14.492;2023-04-06T01:14:30;21.30;64.30
74153;DHT22;62505;46.070;14.492;2023-04-06T01:16:58;21.30;64.00
74153;DHT22;62505;46.070;14.492;2023-04-06T01:19:27;21.30;64.00
74153;DHT22;62505;46.070;14.492;2023-04-06T01:21:56;21.30;64.00
74153;DHT22;62505;46.070;14.492;2023-04-06T01:24:24;21.30;63.80
74153;DHT22;62505;46.070;14.492;2023-04-06T01:26:51;21.30;63.90
74153;DHT22;62505;46.070;14.492;2023-04-06T01:29:18;21.30;64.10
74153;DHT22;62505;46.070;14.492;2023-04-06T01:31:45;21.30;63.90
74153;DHT22;62505;46.070;14.492;2023-04-06T01:34:12;21.30;63.70
74153;DHT22;62505;46.070;14.492;2023-04-06T01:36:39;21.30;63.80
74153;DHT22;62505;46.070;14.492;2023-04-06T01:39:06;21.30;63.90
74153;DHT22;62505;46.070;14.492;2023-04-06T01:41:35;21.30;63.80
74153;DHT22;62505;46.070;14.492;2023-04-06T01:44:02;21.30;63.90
74153;DHT22;62505;46.070;14.492;2023-04-06T01:46:29;21.30;63.50
74153;DHT22;62505;46.070;14.492;2023-04-06T01:48:56;21.30;63.80
74153;DHT22;62505;46.070;14.492;2023-04-06T01:51:23;21.30;63.50
74153;DHT22;62505;46.070;14.492;2023-04-06T01:53:51;21.30;63.50
74153;DHT22;62505;46.070;14.492;2023-04-06T01:56:18;21.30;63.40
74153;DHT22;62505;46.070;14.492;2023-04-06T01:58:47;21.30;63.40
74153;DHT22;62505;46.070;14.492;2023-04-06T02:01:14;21.30;63.50
74153;DHT22;62505;46.070;14.492;2023-04-06T02:03:41;21.30;63.40
74153;DHT22;62505;46.070;14.492;2023-04-06T02:06:08;21.30;63.50
74153;DHT22;62505;46.070;14.492;2023-04-06T02:08:35;21.30;63.50
74153;DHT22;62505;46.070;14.492;2023-04-06T02:11:02;21.30;63.40
74153;DHT22;62505;46.070;14.492;2023-04-06T02:13:29;21.30;63.50
74153;DHT22;62505;46.070;14.492;2023-04-06T02:15:58;21.30;63.10
74153;DHT22;62505;46.070;14.492;2023-04-06T02:18:25;21.30;63.20
74153;DHT22;62505;46.070;14.492;2023-04-06T02:20:53;21.30;63.50
74153;DHT22;62505;46.070;14.492;2023-04-06T02:23:20;21.30;63.30
74153;DHT22;62505;46.070;14.492;2023-04-06T02:25:47;21.30;63.20
74153;DHT22;62505;46.070;14.492;2023-04-06T02:28:14;21.30;63.30
74153;DHT22;62505;46.070;14.492;2023-04-06T02:30:41;21.30;63.00
74153;DHT22;62505;46.070;14.492;2023-04-06T02:33:09;21.30;63.20
74153;DHT22;62505;46.070;14.492;2023-04-06T02:35:36;21.30;63.10
74153;DHT22;62505;46.070;14.492;2023-04-06T02:38:03;21.30;62.90
74153;DHT22;62505;46.070;14.492;2023-04-06T02:40:31;21.30;63.10
74153;DHT22;62505;46.070;14.492;2023-04-06T02:42:58;21.30;63.10
74153;DHT22;62505;46.070;14.492;2023-04-06T02:45:25;21.30;63.00
74153;DHT22;62505;46.070;14.492;2023-04-06T02:47:52;21.30;62.70
74153;DHT22;62505;46.070;14.492;2023-04-06T02:50:20;21.30;62.70
74153;DHT22;62505;46.070;14.492;2023-04-06T02:52:47;21.30;62.80
74153;DHT22;62505;46.070;14.492;2023-04-06T02:55:14;21.30;62.70
74153;DHT22;62505;46.070;14.492;2023-04-06T02:57:41;21.30;62.70
74153;DHT22;62505;46.070;14.492;2023-04-06T03:00:09;21.30;62.70
74153;DHT22;62505;46.070;14.492;2023-04-06T03:02:36;21.30;62.80
74153;DHT22;62505;46.070;14.492;2023-04-06T03:05:04;21.30;62.70
74153;DHT22;62505;46.070;14.492;2023-04-06T03:07:32;21.30;62.50
74153;DHT22;62505;46.070;14.492;2023-04-06T03:09:59;21.30;62.60
74153;DHT22;62505;46.070;14.492;2023-04-06T03:12:26;21.30;62.60
74153;DHT22;62505;46.070;14.492;2023-04-06T03:14:53;21.30;62.30
74153;DHT22;62505;46.070;14.492;2023-04-06T03:17:21;21.30;62.50
74153;DHT22;62505;46.070;14.492;2023-04-06T03:19:48;21.30;62.60
74153;DHT22;62505;46.070;14.492;2023-04-06T03:22:15;21.30;62.30
74153;DHT22;62505;46.070;14.492;2023-04-06T03:24:43;21.30;62.50
74153;DHT22;62505;46.070;14.492;2023-04-06T03:27:10;21.30;62.60
74153;DHT22;62505;46.070;14.492;2023-04-06T03:29:37;21.30;62.20
74153;DHT22;62505;46.070;14.492;2023-04-06T03:32:04;21.30;62.30
74153;DHT22;62505;46.070;14.492;2023-04-06T03:34:31;21.30;62.30
74153;DHT22;62505;46.070;14.492;2023-04-06T03:36:58;21.30;62.20
74153;DHT22;62505;46.070;14.492;2023-04-06T03:39:25;21.30;62.30
74153;DHT22;62505;46.070;14.492;2023-04-06T03:41:54;21.30;62.00
74153;DHT22;62505;46.070;14.492;2023-04-06T03:44:21;21.30;62.00
74153;DHT22;62505;46.070;14.492;2023-04-06T03:46:48;21.30;61.90
74153;DHT22;62505;46.070;14.492;2023-04-06T03:49:15;21.30;62.30
74153;DHT22;62505;46.070;14.492;2023-04-06T03:51:42;21.30;62.00
74153;DHT22;62505;46.070;14.492;2023-04-06T03:54:09;21.30;61.80
74153;DHT22;62505;46.070;14.492;2023-04-06T03:56:36;21.30;61.90
74153;DHT22;62505;46.070;14.492;2023-04-06T03:59:05;21.30;62.00
74153;DHT22;62505;46.070;14.492;2023-04-06T04:01:32;21.30;62.00
74153;DHT22;62505;46.070;14.492;2023-04-06T04:03:59;21.30;61.80
74153;DHT22;62505;46.070;14.492;2023-04-06T04:06:26;21.30;61.80
74153;DHT22;62505;46.070;14.492;2023-04-06T04:08:53;21.20;61.40
74153;DHT22;62505;46.070;14.492;2023-04-06T04:11:20;21.30;62.60
74153;DHT22;62505;46.070;14.492;2023-04-06T04:13:47;21.20;61.50
74153;DHT22;62505;46.070;14.492;2023-04-06T04:16:15;21.30;61.80
74153;DHT22;62505;46.070;14.492;2023-04-06T04:18:42;21.30;62.10
74153;DHT22;62505;46.070;14.492;2023-04-06T04:21:11;21.20;62.10
74153;DHT22;62505;46.070;14.492;2023-04-06T04:23:38;21.30;62.20
74153;DHT22;62505;46.070;14.492;2023-04-06T04:26:05;21.30;62.20
74153;DHT22;62505;46.070;14.492;2023-04-06T04:28:32;21.30;62.30
74153;DHT22;62505;46.070;14.492;2023-04-06T04:30:59;21.30;62.50
74153;DHT22;62505;46.070;14.492;2023-04-06T04:33:27;21.30;62.50
74153;DHT22;62505;46.070;14.492;2023-04-06T04:35:54;21.20;63.10
74153;DHT22;62505;46.070;14.492;2023-04-06T04:38:21;21.20;62.30
74153;DHT22;62505;46.070;14.492;2023-04-06T04:40:48;21.30;62.30
74153;DHT22;62505;46.070;14.492;2023-04-06T04:43:15;21.20;62.20
74153;DHT22;62505;46.070;14.492;2023-04-06T04:45:42;21.20;62.10
74153;DHT22;62505;46.070;14.492;2023-04-06T04:48:09;21.20;62.20
74153;DHT22;62505;46.070;14.492;2023-04-06T04:50:38;21.30;62.20
74153;DHT22;62505;46.070;14.492;2023-04-06T04:53:05;21.20;62.10
74153;DHT22;62505;46.070;14.492;2023-04-06T04:55:32;21.20;62.90
74153;DHT22;62505;46.070;14.492;2023-04-06T04:57:59;21.20;62.00
74153;DHT22;62505;46.070;14.492;2023-04-06T05:00:28;21.20;62.00
74153;DHT22;62505;46.070;14.492;2023-04-06T05:02:55;21.20;61.70
74153;DHT22;62505;46.070;14.492;2023-04-06T05:05:22;21.30;61.50
74153;DHT22;62505;46.070;14.492;2023-04-06T05:07:50;21.20;61.00
74153;DHT22;62505;46.070;14.492;2023-04-06T05:10:17;21.30;61.50
74153;DHT22;62505;46.070;14.492;2023-04-06T05:12:44;21.30;61.40
74153;DHT22;62505;46.070;14.492;2023-04-06T05:15:11;21.30;61.40
74153;DHT22;62505;46.070;14.492;2023-04-06T05:17:38;21.30;61.40
74153;DHT22;62505;46.070;14.492;2023-04-06T05:20:06;21.20;61.40
74153;DHT22;62505;46.070;14.492;2023-04-06T05:22:33;21.20;61.40
74153;DHT22;62505;46.070;14.492;2023-04-06T05:25:03;21.20;61.50
74153;DHT22;62505;46.070;14.492;2023-04-06T05:27:30;21.20;61.50
74153;DHT22;62505;46.070;14.492;2023-04-06T05:29:57;21.20;61.50
74153;DHT22;62505;46.070;14.492;2023-04-06T05:32:24;21.20;61.50
74153;DHT22;62505;46.070;14.492;2023-04-06T05:34:52;21.20;61.50
74153;DHT22;62505;46.070;14.492;2023-04-06T05:37:19;21.20;61.50
74153;DHT22;62505;46.070;14.492;2023-04-06T05:39:46;21.20;61.50
74153;DHT22;62505;46.070;14.492;2023-04-06T05:42:14;21.20;61.50
74153;DHT22;62505;46.070;14.492;2023-04-06T05:44:42;21.20;61.50
74153;DHT22;62505;46.070;14.492;2023-04-06T05:47:09;21.20;61.40
74153;DHT22;62505;46.070;14.492;2023-04-06T05:49:36;21.20;61.40
74153;DHT22;62505;46.070;14.492;2023-04-06T05:52:03;21.20;61.40
74153;DHT22;62505;46.070;14.492;2023-04-06T05:54:31;21.20;61.40
74153;DHT22;62505;46.070;14.492;2023-04-06T05:56:58;21.20;61.40
74153;DHT22;62505;46.070;14.492;2023-04-06T05:59:26;21.20;61.30
74153;DHT22;62505;46.070;14.492;2023-04-06T06:01:53;21.20;61.40
74153;DHT22;62505;46.070;14.492;2023-04-06T06:04:20;21.20;61.40
74153;DHT22;62505;46.070;14.492;2023-04-06T06:06:47;21.20;61.30
74153;DHT22;62505;46.070;14.492;2023-04-06T06:09:14;21.20;61.40
74153;DHT22;62505;46.070;14.492;2023-04-06T06:11:41;21.20;61.30
74153;DHT22;62505;46.070;14.492;2023-04-06T06:14:08;21.20;61.30
74153;DHT22;62505;46.070;14.492;2023-04-06T06:16:37;21.20;61.30
74153;DHT22;62505;46.070;14.492;2023-04-06T06:19:04;21.20;61.40
74153;DHT22;62505;46.070;14.492;2023-04-06T06:21:31;21.20;61.20
74153;DHT22;62505;46.070;14.492;2023-04-06T06:23:58;21.20;61.30
74153;DHT22;62505;46.070;14.492;2023-04-06T06:26:25;21.20;61.20
74153;DHT22;62505;46.070;14.492;2023-04-06T06:28:52;21.20;61.20
74153;DHT22;62505;46.070;14.492;2023-04-06T06:31:19;21.20;61.20
74153;DHT22;62505;46.070;14.492;2023-04-06T06:33:49;21.20;61.20
74153;DHT22;62505;46.070;14.492;2023-04-06T06:36:17;21.20;61.10
74153;DHT22;62505;46.070;14.492;2023-04-06T06:38:44;21.10;61.00
74153;DHT22;62505;46.070;14.492;2023-04-06T06:41:11;21.10;61.10
74153;DHT22;62505;46.070;14.492;2023-04-06T06:43:38;21.20;61.20
74153;DHT22;62505;46.070;14.492;2023-04-06T06:46:06;21.10;61.00
74153;DHT22;62505;46.070;14.492;2023-04-06T06:48:33;21.20;61.10
74153;DHT22;62505;46.070;14.492;2023-04-06T06:51:01;21.10;61.00
74153;DHT22;62505;46.070;14.492;2023-04-06T06:53:28;21.10;61.00
74153;DHT22;62505;46.070;14.492;2023-04-06T06:55:55;21.10;60.90
74153;DHT22;62505;46.070;14.492;2023-04-06T06:58:22;21.10;61.00
74153;DHT22;62505;46.070;14.492;2023-04-06T07:00:49;21.10;60.90
74153;DHT22;62505;46.070;14.492;2023-04-06T07:03:16;21.10;60.90
74153;DHT22;62505;46.070;14.492;2023-04-06T07:05:47;21.10;60.80
74153;DHT22;62505;46.070;14.492;2023-04-06T07:08:20;21.10;60.90
74153;DHT22;62505;46.070;14.492;2023-04-06T07:10:47;21.10;61.00
74153;DHT22;62505;46.070;14.492;2023-04-06T07:13:15;21.10;60.90
74153;DHT22;62505;46.070;14.492;2023-04-06T07:15:47;21.10;60.90
74153;DHT22;62505;46.070;14.492;2023-04-06T07:18:14;21.10;60.80
74153;DHT22;62505;46.070;14.492;2023-04-06T07:20:41;21.20;60.80
74153;DHT22;62505;46.070;14.492;2023-04-06T07:23:08;21.10;60.90
74153;DHT22;62505;46.070;14.492;2023-04-06T07:25:37;21.10;60.80
74153;DHT22;62505;46.070;14.492;2023-04-06T07:28:04;21.10;60.80
74153;DHT22;62505;46.070;14.492;2023-04-06T07:30:31;21.10;60.80
74153;DHT22;62505;46.070;14.492;2023-04-06T07:32:58;21.10;60.70
74153;DHT22;62505;46.070;14.492;2023-04-06T07:35:26;21.10;60.80
74153;DHT22;62505;46.070;14.492;2023-04-06T07:37:55;21.10;60.80
74153;DHT22;62505;46.070;14.492;2023-04-06T07:40:22;21.10;60.70
74153;DHT22;62505;46.070;14.492;2023-04-06T07:42:53;21.10;60.60
74153;DHT22;62505;46.070;14.492;2023-04-06T07:45:20;21.10;60.70
74153;DHT22;62505;46.070;14.492;2023-04-06T07:47:47;21.10;60.70
74153;DHT22;62505;46.070;14.492;2023-04-06T07:50:14;21.10;60.70
74153;DHT22;62505;46.070;14.492;2023-04-06T07:52:41;21.10;60.80
74153;DHT22;62505;46.070;14.492;2023-04-06T07:55:09;21.10;60.70
74153;DHT22;62505;46.070;14.492;2023-04-06T07:57:36;21.10;60.60
74153;DHT22;62505;46.070;14.492;2023-04-06T08:00:05;21.10;60.60
74153;DHT22;62505;46.070;14.492;2023-04-06T08:02:34;21.10;60.60
74153;DHT22;62505;46.070;14.492;2023-04-06T08:05:01;21.10;60.70
74153;DHT22;62505;46.070;14.492;2023-04-06T08:07:28;21.10;60.60
74153;DHT22;62505;46.070;14.492;2023-04-06T08:09:55;21.10;60.60
74153;DHT22;62505;46.070;14.492;2023-04-06T08:12:23;21.10;60.60
74153;DHT22;62505;46.070;14.492;2023-04-06T08:14:50;21.10;60.50
74153;DHT22;62505;46.070;14.492;2023-04-06T08:17:19;21.10;60.60
74153;DHT22;62505;46.070;14.492;2023-04-06T08:19:46;21.10;60.50
74153;DHT22;62505;46.070;14.492;2023-04-06T08:22:13;21.10;60.50
74153;DHT22;62505;46.070;14.492;2023-04-06T08:24:40;21.10;60.60
74153;DHT22;62505;46.070;14.492;2023-04-06T08:27:07;21.10;60.40
74153;DHT22;62505;46.070;14.492;2023-04-06T08:29:34;21.10;60.40
74153;DHT22;62505;46.070;14.492;2023-04-06T08:32:01;21.10;60.40
74153;DHT22;62505;46.070;14.492;2023-04-06T08:34:32;21.10;60.50
74153;DHT22;62505;46.070;14.492;2023-04-06T08:36:59;21.10;60.40
74153;DHT22;62505;46.070;14.492;2023-04-06T08:39:26;21.10;60.30
74153;DHT22;62505;46.070;14.492;2023-04-06T08:41:53;21.10;60.40
74153;DHT22;62505;46.070;14.492;2023-04-06T08:44:22;21.10;60.40
74153;DHT22;62505;46.070;14.492;2023-04-06T08:46:50;21.10;60.40
74153;DHT22;62505;46.070;14.492;2023-04-06T08:49:18;21.10;60.30
74153;DHT22;62505;46.070;14.492;2023-04-06T08:51:47;21.10;60.30
74153;DHT22;62505;46.070;14.492;2023-04-06T08:54:14;21.10;60.30
74153;DHT22;62505;46.070;14.492;2023-04-06T08:56:42;21.10;60.30
74153;DHT22;62505;46.070;14.492;2023-04-06T08:59:10;21.10;60.30
74153;DHT22;62505;46.070;14.492;2023-04-06T09:01:39;21.10;60.30
74153;DHT22;62505;46.070;14.492;2023-04-06T09:04:08;21.10;60.30
74153;DHT22;62505;46.070;14.492;2023-04-06T09:06:36;21.10;60.20
74153;DHT22;62505;46.070;14.492;2023-04-06T09:09:05;21.10;60.30
74153;DHT22;62505;46.070;14.492;2023-04-06T09:11:43;21.10;60.20
74153;DHT22;62505;46.070;14.492;2023-04-06T09:14:10;21.10;60.30
74153;DHT22;62505;46.070;14.492;2023-04-06T09:16:39;21.10;60.20
74153;DHT22;62505;46.070;14.492;2023-04-06T09:19:07;21.10;60.20
74153;DHT22;62505;46.070;14.492;2023-04-06T09:21:35;21.10;60.20
74153;DHT22;62505;46.070;14.492;2023-04-06T09:24:03;21.10;60.20
74153;DHT22;62505;46.070;14.492;2023-04-06T09:26:31;21.10;60.20
74153;DHT22;62505;46.070;14.492;2023-04-06T09:28:59;21.10;60.10
74153;DHT22;62505;46.070;14.492;2023-04-06T09:31:28;21.10;60.20
74153;DHT22;62505;46.070;14.492;2023-04-06T09:33:56;21.10;60.10
74153;DHT22;62505;46.070;14.492;2023-04-06T09:36:30;21.10;60.00
74153;DHT22;62505;46.070;14.492;2023-04-06T09:39:03;21.10;60.10
74153;DHT22;62505;46.070;14.492;2023-04-06T09:41:32;21.10;60.10
74153;DHT22;62505;46.070;14.492;2023-04-06T09:44:03;21.10;60.10
74153;DHT22;62505;46.070;14.492;2023-04-06T09:46:32;21.10;60.10
74153;DHT22;62505;46.070;14.492;2023-04-06T09:49:00;21.10;60.10
74153;DHT22;62505;46.070;14.492;2023-04-06T09:51:30;21.10;60.00
74153;DHT22;62505;46.070;14.492;2023-04-06T09:53:59;21.10;60.10
74153;DHT22;62505;46.070;14.492;2023-04-06T09:56:33;21.10;60.00
74153;DHT22;62505;46.070;14.492;2023-04-06T09:59:08;21.10;60.10
74153;DHT22;62505;46.070;14.492;2023-04-06T10:01:37;21.10;60.00
74153;DHT22;62505;46.070;14.492;2023-04-06T10:04:22;21.10;60.00
74153;DHT22;62505;46.070;14.492;2023-04-06T10:06:51;21.10;59.90
74153;DHT22;62505;46.070;14.492;2023-04-06T10:09:24;21.10;60.00
74153;DHT22;62505;46.070;14.492;2023-04-06T10:11:54;21.10;60.00
74153;DHT22;62505;46.070;14.492;2023-04-06T10:14:21;21.10;59.90
74153;DHT22;62505;46.070;14.492;2023-04-06T10:16:49;21.10;59.80
74153;DHT22;62505;46.070;14.492;2023-04-06T10:19:20;21.10;59.90
74153;DHT22;62505;46.070;14.492;2023-04-06T10:21:51;21.10;59.90
74153;DHT22;62505;46.070;14.492;2023-04-06T10:24:21;21.10;59.90
74153;DHT22;62505;46.070;14.492;2023-04-06T10:26:58;21.10;59.80
74153;DHT22;62505;46.070;14.492;2023-04-06T10:29:26;21.10;59.80
74153;DHT22;62505;46.070;14.492;2023-04-06T10:31:53;21.10;59.80
74153;DHT22;62505;46.070;14.492;2023-04-06T10:34:21;21.10;59.90
74153;DHT22;62505;46.070;14.492;2023-04-06T10:36:48;21.10;59.80
74153;DHT22;62505;46.070;14.492;2023-04-06T10:39:24;21.10;59.80
74153;DHT22;62505;46.070;14.492;2023-04-06T10:41:52;21.10;59.80
74153;DHT22;62505;46.070;14.492;2023-04-06T10:44:22;21.10;59.80
74153;DHT22;62505;46.070;14.492;2023-04-06T10:46:53;21.10;60.50
74153;DHT22;62505;46.070;14.492;2023-04-06T10:49:21;21.10;59.70
74153;DHT22;62505;46.070;14.492;2023-04-06T10:51:52;21.10;59.70
74153;DHT22;62505;46.070;14.492;2023-04-06T10:54:21;21.10;59.80
74153;DHT22;62505;46.070;14.492;2023-04-06T10:56:50;21.10;59.70
74153;DHT22;62505;46.070;14.492;2023-04-06T10:59:20;21.10;59.80
74153;DHT22;62505;46.070;14.492;2023-04-06T11:01:49;21.10;59.80
74153;DHT22;62505;46.070;14.492;2023-04-06T11:04:17;21.10;59.80
74153;DHT22;62505;46.070;14.492;2023-04-06T11:06:47;21.10;59.80
74153;DHT22;62505;46.070;14.492;2023-04-06T11:09:24;21.10;59.80
74153;DHT22;62505;46.070;14.492;2023-04-06T11:11:52;21.10;59.80
74153;DHT22;62505;46.070;14.492;2023-04-06T11:14:20;21.10;59.80
74153;DHT22;62505;46.070;14.492;2023-04-06T11:16:48;21.10;59.70
74153;DHT22;62505;46.070;14.492;2023-04-06T11:19:15;21.10;59.70
74153;DHT22;62505;46.070;14.492;2023-04-06T11:21:44;21.10;59.70
74153;DHT22;62505;46.070;14.492;2023-04-06T11:24:14;21.10;59.60
74153;DHT22;62505;46.070;14.492;2023-04-06T11:26:43;21.10;59.70
74153;DHT22;62505;46.070;14.492;2023-04-06T11:29:11;21.10;59.70
74153;DHT22;62505;46.070;14.492;2023-04-06T11:31:46;21.10;59.60
74153;DHT22;62505;46.070;14.492;2023-04-06T11:34:16;21.10;59.70
74153;DHT22;62505;46.070;14.492;2023-04-06T11:36:45;21.10;59.70
74153;DHT22;62505;46.070;14.492;2023-04-06T11:39:17;21.10;59.70
74153;DHT22;62505;46.070;14.492;2023-04-06T11:41:47;21.10;59.60
74153;DHT22;62505;46.070;14.492;2023-04-06T11:44:14;21.10;59.70
74153;DHT22;62505;46.070;14.492;2023-04-06T11:46:52;21.10;59.60
74153;DHT22;62505;46.070;14.492;2023-04-06T11:49:19;21.10;59.50
74153;DHT22;62505;46.070;14.492;2023-04-06T11:51:46;21.10;59.60
74153;DHT22;62505;46.070;14.492;2023-04-06T11:54:13;21.10;59.60
74153;DHT22;62505;46.070;14.492;2023-04-06T11:56:46;21.10;59.50
74153;DHT22;62505;46.070;14.492;2023-04-06T11:59:13;21.10;59.60
74153;DHT22;62505;46.070;14.492;2023-04-06T12:01:45;21.00;59.50
74153;DHT22;62505;46.070;14.492;2023-04-06T12:04:13;21.10;59.60
74153;DHT22;62505;46.070;14.492;2023-04-06T12:06:41;21.10;59.60
74153;DHT22;62505;46.070;14.492;2023-04-06T12:09:08;21.10;59.50
74153;DHT22;62505;46.070;14.492;2023-04-06T12:11:35;21.10;59.60
74153;DHT22;62505;46.070;14.492;2023-04-06T12:14:02;21.10;59.50
74153;DHT22;62505;46.070;14.492;2023-04-06T12:16:30;21.10;59.60
74153;DHT22;62505;46.070;14.492;2023-04-06T12:18:57;21.10;59.50
74153;DHT22;62505;46.070;14.492;2023-04-06T12:21:27;21.10;59.50
74153;DHT22;62505;46.070;14.492;2023-04-06T12:23:54;21.10;59.50
74153;DHT22;62505;46.070;14.492;2023-04-06T12:26:21;21.10;59.50
74153;DHT22;62505;46.070;14.492;2023-04-06T12:28:48;21.10;59.50
74153;DHT22;62505;46.070;14.492;2023-04-06T12:31:15;21.10;59.50
74153;DHT22;62505;46.070;14.492;2023-04-06T12:33:42;21.10;59.50
74153;DHT22;62505;46.070;14.492;2023-04-06T12:36:11;21.10;59.60
74153;DHT22;62505;46.070;14.492;2023-04-06T12:38:40;21.10;59.40
74153;DHT22;62505;46.070;14.492;2023-04-06T12:41:07;21.10;59.40
74153;DHT22;62505;46.070;14.492;2023-04-06T12:43:34;21.10;59.40
74153;DHT22;62505;46.070;14.492;2023-04-06T12:46:01;21.10;59.40
74153;DHT22;62505;46.070;14.492;2023-04-06T12:48:28;21.10;59.40
74153;DHT22;62505;46.070;14.492;2023-04-06T12:50:57;21.10;59.20
74153;DHT22;62505;46.070;14.492;2023-04-06T12:53:25;21.10;59.40
74153;DHT22;62505;46.070;14.492;2023-04-06T12:55:54;21.10;59.30
74153;DHT22;62505;46.070;14.492;2023-04-06T12:58:22;21.10;59.40
74153;DHT22;62505;46.070;14.492;2023-04-06T13:00:50;21.10;59.40
74153;DHT22;62505;46.070;14.492;2023-04-06T13:03:17;21.10;59.40
74153;DHT22;62505;46.070;14.492;2023-04-06T13:05:44;21.10;59.50
74153;DHT22;62505;46.070;14.492;2023-04-06T13:08:12;21.10;59.50
74153;DHT22;62505;46.070;14.492;2023-04-06T13:10:43;21.10;59.40
74153;DHT22;62505;46.070;14.492;2023-04-06T13:13:11;21.10;59.30
74153;DHT22;62505;46.070;14.492;2023-04-06T13:15:38;21.10;59.40
74153;DHT22;62505;46.070;14.492;2023-04-06T13:18:05;21.10;59.30
74153;DHT22;62505;46.070;14.492;2023-04-06T13:20:33;21.10;59.30
74153;DHT22;62505;46.070;14.492;2023-04-06T13:23:00;21.10;59.30
74153;DHT22;62505;46.070;14.492;2023-04-06T13:25:27;21.10;59.30
74153;DHT22;62505;46.070;14.492;2023-04-06T13:27:55;21.10;59.30
74153;DHT22;62505;46.070;14.492;2023-04-06T13:30:23;21.10;59.30
74153;DHT22;62505;46.070;14.492;2023-04-06T13:32:51;21.10;59.30
74153;DHT22;62505;46.070;14.492;2023-04-06T13:35:18;21.10;59.20
74153;DHT22;62505;46.070;14.492;2023-04-06T13:37:45;21.10;59.20
74153;DHT22;62505;46.070;14.492;2023-04-06T13:40:12;21.10;59.30
74153;DHT22;62505;46.070;14.492;2023-04-06T13:42:39;21.10;59.20
74153;DHT22;62505;46.070;14.492;2023-04-06T13:45:10;21.10;59.20
74153;DHT22;62505;46.070;14.492;2023-04-06T13:47:39;21.20;59.30
74153;DHT22;62505;46.070;14.492;2023-04-06T13:50:07;21.20;59.30
74153;DHT22;62505;46.070;14.492;2023-04-06T13:52:35;21.20;59.20
74153;DHT22;62505;46.070;14.492;2023-04-06T13:55:03;21.20;59.30
74153;DHT22;62505;46.070;14.492;2023-04-06T13:57:30;21.20;59.20
74153;DHT22;62505;46.070;14.492;2023-04-06T13:59:57;21.20;59.20
74153;DHT22;62505;46.070;14.492;2023-04-06T14:02:24;21.20;59.20
74153;DHT22;62505;46.070;14.492;2023-04-06T14:04:54;21.20;59.20
74153;DHT22;62505;46.070;14.492;2023-04-06T14:07:21;21.20;59.10
74153;DHT22;62505;46.070;14.492;2023-04-06T14:09:48;21.20;59.20
74153;DHT22;62505;46.070;14.492;2023-04-06T14:12:15;21.20;58.90
74153;DHT22;62505;46.070;14.492;2023-04-06T14:14:42;21.20;59.10
74153;DHT22;62505;46.070;14.492;2023-04-06T14:17:09;21.20;59.10
74153;DHT22;62505;46.070;14.492;2023-04-06T14:19:36;21.20;59.00
74153;DHT22;62505;46.070;14.492;2023-04-06T14:22:04;21.20;59.00
74153;DHT22;62505;46.070;14.492;2023-04-06T14:24:31;21.20;58.90
74153;DHT22;62505;46.070;14.492;2023-04-06T14:26:59;21.20;59.00
74153;DHT22;62505;46.070;14.492;2023-04-06T14:29:26;21.20;58.90
74153;DHT22;62505;46.070;14.492;2023-04-06T14:31:53;21.20;58.90
74153;DHT22;62505;46.070;14.492;2023-04-06T14:34:25;21.20;58.90
74153;DHT22;62505;46.070;14.492;2023-04-06T14:36:52;21.20;58.90
74153;DHT22;62505;46.070;14.492;2023-04-06T14:39:20;21.20;58.80
74153;DHT22;62505;46.070;14.492;2023-04-06T14:41:48;21.30;59.00
74153;DHT22;62505;46.070;14.492;2023-04-06T14:44:15;21.30;58.70
74153;DHT22;62505;46.070;14.492;2023-04-06T14:46:42;21.30;58.80
74153;DHT22;62505;46.070;14.492;2023-04-06T14:49:09;21.30;58.80
74153;DHT22;62505;46.070;14.492;2023-04-06T14:51:36;21.30;58.60
74153;DHT22;62505;46.070;14.492;2023-04-06T14:54:03;21.30;58.90
74153;DHT22;62505;46.070;14.492;2023-04-06T14:56:31;21.30;59.00
74153;DHT22;62505;46.070;14.492;2023-04-06T14:58:59;21.30;59.00
74153;DHT22;62505;46.070;14.492;2023-04-06T15:01:27;21.30;58.90
74153;DHT22;62505;46.070;14.492;2023-04-06T15:03:54;21.30;58.90
74153;DHT22;62505;46.070;14.492;2023-04-06T15:06:21;21.30;59.00
74153;DHT22;62505;46.070;14.492;2023-04-06T15:08:49;21.40;59.20
74153;DHT22;62505;46.070;14.492;2023-04-06T15:11:16;21.40;59.40
74153;DHT22;62505;46.070;14.492;2023-04-06T15:13:44;21.40;59.30
74153;DHT22;62505;46.070;14.492;2023-04-06T15:16:11;21.50;59.40
74153;DHT22;62505;46.070;14.492;2023-04-06T15:18:40;21.50;59.50